Time;durP1;ratioP1;P1;durP2;ratioP2;P2;SDS_P1;SDS_P2;PMS_P1;PMS_P2;Temp;Humidity;BMP_temperature;BMP_pressure;BME280_temperature;BME280_humidity;BME280_pressure;Samples;Min_cycle;Max_cycle;Signal;HPM_P1;HPM_P2
2023/08/03 00:02:11;;;;;;;5.00;1.80;;;15.40;99.90;;;;;;5027866;28;20055;-73
2023/08/03 00:04:37;;;;;;;5.23;1.63;;;15.50;99.90;;;;;;5045017;28;20045;-73
2023/08/03 00:07:03;;;;;;;5.13;1.47;;;15.50;99.90;;;;;;5042671;28;20037;-73
2023/08/03 00:09:29;;;;;;;6.70;1.70;;;15.50;99.90;;;;;;5039973;28;20029;-73
2023/08/03 00:11:54;;;;;;;6.00;1.67;;;15.50;99.90;;;;;;5035059;28;20074;-73
2023/08/03 00:14:20;;;;;;;5.70;1.57;;;15.50;99.90;;;;;;5044459;28;20057;-73
2023/08/03 00:16:46;;;;;;;5.97;1.80;;;15.50;99.90;;;;;;5041885;28;20494;-73
2023/08/03 00:19:11;;;;;;;8.53;1.80;;;15.50;99.90;;;;;;5048985;28;20037;-73
2023/08/03 00:21:37;;;;;;;6.10;1.67;;;15.50;99.90;;;;;;5048400;28;20049;-73
2023/08/03 00:24:03;;;;;;;9.30;1.63;;;15.60;99.90;;;;;;5032005;28;20033;-73
2023/08/03 00:26:29;;;;;;;6.53;1.43;;;15.50;99.90;;;;;;5045855;28;20298;-73
2023/08/03 00:28:55;;;;;;;4.30;1.60;;;15.50;99.90;;;;;;5043379;28;20044;-73
2023/08/03 00:31:21;;;;;;;5.13;1.30;;;15.50;99.90;;;;;;5048471;28;20029;-73
2023/08/03 00:33:46;;;;;;;6.40;1.40;;;15.50;99.90;;;;;;5041260;28;20053;-73
2023/08/03 00:36:12;;;;;;;4.87;1.40;;;15.60;99.90;;;;;;5050571;28;20037;-73
2023/08/03 00:38:38;;;;;;;6.00;1.60;;;15.60;99.90;;;;;;5016928;28;20041;-73
2023/08/03 00:41:03;;;;;;;4.17;1.50;;;15.50;99.90;;;;;;5039268;28;20546;-73
2023/08/03 00:43:29;;;;;;;4.87;1.10;;;15.60;99.90;;;;;;5031347;28;20119;-73
2023/08/03 00:45:55;;;;;;;4.07;1.30;;;15.50;99.90;;;;;;5048488;28;20045;-73
2023/08/03 00:48:21;;;;;;;6.43;1.30;;;15.50;99.90;;;;;;5044169;28;20052;-73
2023/08/03 00:50:46;;;;;;;5.13;1.37;;;15.50;99.90;;;;;;5049034;28;20106;-73
2023/08/03 00:53:12;;;;;;;6.10;1.10;;;15.50;99.90;;;;;;5042502;28;20049;-73
2023/08/03 00:55:38;;;;;;;3.37;1.00;;;15.50;99.90;;;;;;5041244;28;20457;-73
2023/08/03 00:58:04;;;;;;;4.30;1.00;;;15.50;99.90;;;;;;5046567;28;20132;-73
2023/08/03 01:00:29;;;;;;;6.00;0.93;;;15.50;99.90;;;;;;5047619;28;20394;-73
2023/08/03 01:02:56;;;;;;;1.83;0.70;;;15.50;99.90;;;;;;5044534;28;20032;-73
2023/08/03 01:05:21;;;;;;;4.23;0.70;;;15.50;99.90;;;;;;5058203;28;20051;-73
2023/08/03 01:07:47;;;;;;;2.43;0.60;;;15.50;99.90;;;;;;5026250;28;20280;-73
2023/08/03 01:10:13;;;;;;;1.93;0.63;;;15.50;99.90;;;;;;5042397;28;20041;-73
2023/08/03 01:12:38;;;;;;;2.83;0.60;;;15.50;99.90;;;;;;5048317;28;20041;-73
2023/08/03 01:15:05;;;;;;;3.63;0.50;;;15.50;99.90;;;;;;5053915;28;20497;-73
2023/08/03 01:17:31;;;;;;;3.30;0.70;;;15.50;99.90;;;;;;5048853;28;20130;-73
2023/08/03 01:19:57;;;;;;;3.60;0.50;;;15.50;99.90;;;;;;5021221;28;20728;-73
2023/08/03 01:22:24;;;;;;;1.43;0.70;;;15.50;99.90;;;;;;5046648;28;20381;-73
2023/08/03 01:24:50;;;;;;;4.93;0.77;;;15.60;99.90;;;;;;5045836;28;20037;-73
2023/08/03 01:27:15;;;;;;;2.67;0.60;;;15.60;99.90;;;;;;5049332;28;20375;-73
2023/08/03 01:29:41;;;;;;;4.13;0.97;;;15.60;99.90;;;;;;5043972;28;20071;-73
2023/08/03 01:32:07;;;;;;;2.27;1.00;;;15.60;99.90;;;;;;5039756;28;20489;-73
2023/08/03 01:34:33;;;;;;;2.10;1.00;;;15.60;99.90;;;;;;5041434;28;20041;-73
2023/08/03 01:36:59;;;;;;;1.93;0.80;;;15.70;99.90;;;;;;5052007;28;20295;-73
2023/08/03 01:39:26;;;;;;;2.63;0.80;;;15.70;99.90;;;;;;5048424;28;20075;-73
2023/08/03 01:41:51;;;;;;;3.63;0.90;;;15.70;99.90;;;;;;5043936;28;20045;-73
2023/08/03 01:44:30;;;;;;;3.30;0.93;;;15.70;99.90;;;;;;5047738;28;20280;-73
2023/08/03 01:46:58;;;;;;;2.60;1.03;;;15.70;99.90;;;;;;5026662;28;20500;-73
2023/08/03 01:49:27;;;;;;;3.07;0.80;;;15.70;99.90;;;;;;5043765;28;20284;-73
2023/08/03 01:51:53;;;;;;;2.27;1.20;;;15.70;99.90;;;;;;5044771;28;20283;-73
2023/08/03 01:54:19;;;;;;;1.80;0.90;;;15.70;99.90;;;;;;5043945;28;20323;-73
2023/08/03 01:56:45;;;;;;;2.93;1.20;;;15.70;99.90;;;;;;5046932;28;20053;-74
2023/08/03 01:59:11;;;;;;;2.60;1.10;;;15.60;99.90;;;;;;5044807;28;20053;-73
2023/08/03 02:01:37;;;;;;;2.63;0.80;;;15.60;99.90;;;;;;5046983;28;20106;-73
2023/08/03 02:04:03;;;;;;;1.70;1.07;;;15.60;99.90;;;;;;5046106;28;20295;-73
2023/08/03 02:06:29;;;;;;;1.53;1.20;;;15.60;99.90;;;;;;5027537;28;20287;-73
2023/08/03 02:08:54;;;;;;;3.03;1.10;;;15.70;99.90;;;;;;5037478;28;20064;-73
2023/08/03 02:11:20;;;;;;;1.90;1.27;;;15.70;99.90;;;;;;5022135;28;20044;-73
2023/08/03 02:13:46;;;;;;;3.37;1.10;;;15.70;99.90;;;;;;5028400;28;20498;-73
2023/08/03 02:16:11;;;;;;;3.43;1.60;;;15.70;99.90;;;;;;5018019;28;20065;-73
2023/08/03 02:18:39;;;;;;;6.37;1.90;;;15.70;99.90;;;;;;5046703;28;20124;-74
2023/08/03 02:21:07;;;;;;;4.83;2.13;;;15.70;99.90;;;;;;5041331;28;20465;-74
2023/08/03 02:23:33;;;;;;;4.47;1.73;;;15.70;99.90;;;;;;5043193;28;20337;-74
2023/08/03 02:26:02;;;;;;;5.43;2.47;;;15.60;99.90;;;;;;5034111;28;20288;-73
2023/08/03 02:28:29;;;;;;;6.67;3.07;;;15.60;99.90;;;;;;5055490;28;20044;-74
2023/08/03 02:30:55;;;;;;;4.57;3.40;;;15.60;99.90;;;;;;5051210;28;20663;-74
2023/08/03 02:33:20;;;;;;;5.70;3.53;;;15.50;99.90;;;;;;5050312;28;20314;-73
2023/08/03 02:35:46;;;;;;;6.83;4.10;;;15.50;99.90;;;;;;5051969;28;20480;-74
2023/08/03 02:38:12;;;;;;;8.00;4.40;;;15.40;99.90;;;;;;5054083;28;20037;-74
2023/08/03 02:40:37;;;;;;;10.33;4.77;;;15.40;99.90;;;;;;5039199;28;20629;-74
2023/08/03 02:43:03;;;;;;;10.93;4.93;;;15.30;99.90;;;;;;5046867;28;20032;-73
2023/08/03 02:45:29;;;;;;;9.97;5.13;;;15.30;99.90;;;;;;5051178;28;20075;-73
2023/08/03 02:47:55;;;;;;;8.40;5.10;;;15.20;99.90;;;;;;5051015;28;20052;-74
2023/08/03 02:50:21;;;;;;;11.17;5.70;;;15.20;99.90;;;;;;5044874;28;20049;-73
2023/08/03 02:52:47;;;;;;;8.83;5.00;;;15.20;99.90;;;;;;5025897;28;20795;-73
2023/08/03 02:55:13;;;;;;;12.33;5.70;;;15.10;99.90;;;;;;5049992;28;20032;-73
2023/08/03 02:57:38;;;;;;;11.03;5.20;;;15.10;99.90;;;;;;5038086;28;20095;-73
2023/08/03 03:00:05;;;;;;;7.97;4.43;;;15.20;99.90;;;;;;5051054;28;20589;-74
2023/08/03 03:02:31;;;;;;;9.33;4.53;;;15.20;99.90;;;;;;5051096;28;20072;-74
2023/08/03 03:04:57;;;;;;;15.50;5.00;;;15.20;99.90;;;;;;5045221;28;20291;-73
2023/08/03 03:07:22;;;;;;;9.30;5.00;;;15.20;99.90;;;;;;5044754;28;20117;-73
2023/08/03 03:09:48;;;;;;;12.20;5.13;;;15.20;99.90;;;;;;5051190;28;20039;-74
2023/08/03 03:12:14;;;;;;;10.83;4.83;;;15.30;99.90;;;;;;5027746;28;20040;-73
2023/08/03 03:14:39;;;;;;;9.83;4.87;;;15.30;99.90;;;;;;5036347;28;20497;-74
2023/08/03 03:17:05;;;;;;;9.13;4.30;;;15.40;99.90;;;;;;5026314;28;20508;-73
2023/08/03 03:19:31;;;;;;;12.07;5.03;;;15.40;99.90;;;;;;5041810;28;20033;-74
2023/08/03 03:21:57;;;;;;;8.97;3.93;;;15.40;99.90;;;;;;5050315;28;20098;-74
2023/08/03 03:24:22;;;;;;;10.80;4.00;;;15.40;99.90;;;;;;5046933;28;20132;-74
2023/08/03 03:26:48;;;;;;;9.10;3.53;;;15.50;99.90;;;;;;5043921;28;20029;-74
2023/08/03 03:29:14;;;;;;;9.00;3.30;;;15.50;99.90;;;;;;5041194;28;20063;-74
2023/08/03 03:31:39;;;;;;;9.97;3.37;;;15.50;99.90;;;;;;5048008;28;20642;-74
2023/08/03 03:34:05;;;;;;;17.03;3.03;;;15.60;99.90;;;;;;5040120;28;20057;-74
2023/08/03 03:36:31;;;;;;;10.50;2.73;;;15.70;99.90;;;;;;5018243;28;20041;-76
2023/08/03 03:38:56;;;;;;;9.23;3.13;;;15.80;99.90;;;;;;5039419;28;20091;-76
2023/08/03 03:41:22;;;;;;;8.53;2.90;;;15.80;99.90;;;;;;5038915;28;20053;-76
2023/08/03 03:43:48;;;;;;;3.80;1.73;;;15.70;99.90;;;;;;5041586;28;20052;-76
2023/08/03 03:46:13;;;;;;;3.37;1.20;;;15.70;99.90;;;;;;5044619;28;20416;-75
2023/08/03 03:48:39;;;;;;;4.47;1.47;;;15.50;99.90;;;;;;5043669;28;20116;-75
2023/08/03 03:51:05;;;;;;;3.10;0.97;;;15.50;99.90;;;;;;5044143;28;20045;-75
2023/08/03 03:53:30;;;;;;;3.40;0.80;;;15.40;99.90;;;;;;5036011;28;20044;-74
2023/08/03 03:55:56;;;;;;;3.70;1.10;;;15.30;99.90;;;;;;5035684;28;20076;-75
2023/08/03 03:58:22;;;;;;;5.07;1.10;;;15.20;99.90;;;;;;5049587;28;20095;-75
2023/08/03 04:00:47;;;;;;;5.70;1.57;;;15.20;99.90;;;;;;5032989;28;20441;-75
2023/08/03 04:03:13;;;;;;;4.97;1.50;;;15.10;99.90;;;;;;5049433;28;20128;-75
2023/08/03 04:05:39;;;;;;;5.20;1.47;;;15.10;99.90;;;;;;5042943;28;20037;-75
2023/08/03 04:08:05;;;;;;;6.27;1.70;;;15.00;99.90;;;;;;5036802;28;20086;-75
2023/08/03 04:10:31;;;;;;;5.87;1.77;;;15.00;99.90;;;;;;5053406;28;20080;-75
2023/08/03 04:12:57;;;;;;;6.37;2.23;;;15.00;99.90;;;;;;5044689;28;20311;-75
2023/08/03 04:15:23;;;;;;;7.93;2.60;;;15.00;99.90;;;;;;5049726;28;20280;-74
2023/08/03 04:17:49;;;;;;;6.37;2.60;;;15.00;99.90;;;;;;5043710;28;20067;-74
2023/08/03 04:20:16;;;;;;;10.20;2.97;;;15.00;99.90;;;;;;5026717;28;20342;-75
2023/08/03 04:22:42;;;;;;;13.60;3.60;;;15.00;99.90;;;;;;5043468;28;20268;-75
2023/08/03 04:25:08;;;;;;;11.60;3.30;;;15.00;99.90;;;;;;5028116;28;20831;-74
2023/08/03 04:27:34;;;;;;;11.37;3.40;;;15.00;99.90;;;;;;5023704;28;20356;-74
2023/08/03 04:30:00;;;;;;;13.33;3.37;;;14.90;99.90;;;;;;5028471;28;20386;-75
2023/08/03 04:32:26;;;;;;;13.93;3.30;;;15.00;99.90;;;;;;5047012;28;20788;-74
2023/08/03 04:34:51;;;;;;;9.50;2.80;;;14.90;99.90;;;;;;5043949;28;20418;-74
2023/08/03 04:37:17;;;;;;;8.73;2.77;;;14.90;99.90;;;;;;5015421;28;20033;-74
2023/08/03 04:39:43;;;;;;;12.07;2.77;;;14.90;99.90;;;;;;5042914;28;20048;-74
2023/08/03 04:42:08;;;;;;;9.33;2.80;;;14.90;99.90;;;;;;5040645;28;20133;-74
2023/08/03 04:44:34;;;;;;;11.23;3.33;;;14.90;99.90;;;;;;5036915;28;20038;-74
2023/08/03 04:47:00;;;;;;;10.27;3.20;;;14.90;99.90;;;;;;5028719;28;20041;-74
2023/08/03 04:49:26;;;;;;;10.00;3.60;;;14.90;99.90;;;;;;5037640;28;20068;-74
2023/08/03 04:51:52;;;;;;;9.53;2.93;;;14.90;99.90;;;;;;5045242;28;20107;-74
2023/08/03 04:54:18;;;;;;;14.37;3.40;;;14.90;99.90;;;;;;5021249;28;20046;-74
2023/08/03 04:56:44;;;;;;;7.10;3.10;;;15.00;99.90;;;;;;5039335;28;20279;-74
2023/08/03 04:59:09;;;;;;;8.90;3.40;;;15.00;99.90;;;;;;5043406;28;20291;-74
2023/08/03 05:01:35;;;;;;;13.80;3.70;;;15.00;99.90;;;;;;5039090;28;20037;-74
2023/08/03 05:04:01;;;;;;;11.37;3.80;;;15.00;99.90;;;;;;5032812;28;20029;-74
2023/08/03 05:06:27;;;;;;;9.90;4.03;;;15.00;99.90;;;;;;5032762;28;20052;-74
2023/08/03 05:08:53;;;;;;;9.67;3.60;;;15.00;99.90;;;;;;5042686;28;20041;-74
2023/08/03 05:11:19;;;;;;;15.70;3.93;;;15.00;99.90;;;;;;5036016;28;20341;-74
2023/08/03 05:13:44;;;;;;;9.93;3.50;;;15.00;99.90;;;;;;5048215;28;20130;-74
2023/08/03 05:16:10;;;;;;;15.40;4.00;;;15.10;99.90;;;;;;5029105;28;20054;-74
2023/08/03 05:18:36;;;;;;;12.50;4.27;;;15.10;99.90;;;;;;4994428;28;20135;-74
2023/08/03 05:21:02;;;;;;;13.07;4.33;;;15.10;99.90;;;;;;4996867;28;20517;-74
2023/08/03 05:23:28;;;;;;;17.53;4.53;;;15.20;99.90;;;;;;5007166;28;20474;-74
2023/08/03 05:25:55;;;;;;;11.00;4.13;;;15.20;99.90;;;;;;4978922;28;20284;-74
2023/08/03 05:28:23;;;;;;;15.73;4.97;;;15.30;99.90;;;;;;5009078;28;20490;-74
2023/08/03 05:30:49;;;;;;;13.60;4.73;;;15.40;99.90;;;;;;4995282;28;20338;-74
2023/08/03 05:33:15;;;;;;;10.47;5.17;;;15.50;99.90;;;;;;4996681;28;20288;-74
2023/08/03 05:35:42;;;;;;;11.97;4.57;;;15.50;99.90;;;;;;4997104;28;20045;-74
2023/08/03 05:38:08;;;;;;;12.27;5.03;;;15.50;99.90;;;;;;5006289;28;20049;-74
2023/08/03 05:40:33;;;;;;;12.90;5.20;;;15.60;99.90;;;;;;4986154;28;20812;-74
2023/08/03 05:42:59;;;;;;;10.63;5.13;;;15.70;99.90;;;;;;5000047;28;20111;-74
2023/08/03 05:45:39;;;;;;;12.80;5.77;;;15.70;99.90;;;;;;5010647;28;20120;-74
2023/08/03 05:48:12;;;;;;;11.30;5.30;;;15.80;99.90;;;;;;4998979;28;20059;-74
2023/08/03 05:50:41;;;;;;;10.00;5.60;;;15.90;99.90;;;;;;5000459;28;20296;-74
2023/08/03 05:53:09;;;;;;;13.23;5.87;;;15.90;99.90;;;;;;5004967;28;20288;-74
2023/08/03 05:55:35;;;;;;;8.50;5.40;;;16.00;99.90;;;;;;5001989;28;20665;-74
2023/08/03 05:58:01;;;;;;;11.13;5.90;;;16.10;99.90;;;;;;5000035;28;20338;-74
2023/08/03 06:00:28;;;;;;;12.37;5.97;;;16.10;99.90;;;;;;5007221;28;20037;-74
2023/08/03 06:02:58;;;;;;;10.03;5.53;;;16.20;99.90;;;;;;5004343;28;20281;-75
2023/08/03 06:05:43;;;;;;;12.57;5.53;;;16.30;99.90;;;;;;5002380;28;20280;-74
2023/08/03 06:08:27;;;;;;;13.77;6.85;;;16.30;99.90;;;;;;5004599;28;20273;-74
2023/08/03 06:11:00;;;;;;;11.27;5.90;;;16.40;99.90;;;;;;5006272;28;20041;-74
2023/08/03 06:13:33;;;;;;;14.97;5.60;;;16.50;99.90;;;;;;5005287;28;20319;-74
2023/08/03 06:16:03;;;;;;;14.33;6.27;;;16.60;99.90;;;;;;5003996;28;20288;-74
2023/08/03 06:18:32;;;;;;;13.43;5.80;;;16.60;99.90;;;;;;5005710;28;20288;-74
2023/08/03 06:20:58;;;;;;;15.33;5.90;;;16.70;99.90;;;;;;4999237;28;20314;-74
2023/08/03 06:23:26;;;;;;;9.87;4.90;;;16.80;99.90;;;;;;5000945;28;20318;-74
2023/08/03 06:25:54;;;;;;;9.83;5.00;;;16.90;99.90;;;;;;4989078;28;20620;-74
2023/08/03 06:28:21;;;;;;;8.83;4.40;;;17.10;99.90;;;;;;5007291;28;20276;-74
2023/08/03 06:30:49;;;;;;;10.97;3.90;;;17.30;99.90;;;;;;5020709;28;20292;-74
2023/08/03 06:33:17;;;;;;;5.97;2.97;;;17.40;99.90;;;;;;5007838;28;20289;-75
2023/08/03 06:35:47;;;;;;;4.40;2.40;;;17.30;99.90;;;;;;4998530;28;20120;-74
2023/08/03 06:38:15;;;;;;;5.93;1.93;;;17.30;99.90;;;;;;4999041;28;20375;-74
2023/08/03 06:40:42;;;;;;;7.27;1.90;;;17.20;99.90;;;;;;5004955;28;20041;-74
2023/08/03 06:43:12;;;;;;;6.40;1.97;;;17.30;99.90;;;;;;4991065;28;20034;-74
2023/08/03 06:45:39;;;;;;;6.20;1.60;;;17.40;99.90;;;;;;4991300;28;20095;-74
2023/08/03 06:48:05;;;;;;;5.20;1.30;;;17.40;99.90;;;;;;5002896;28;20124;-74
2023/08/03 06:50:32;;;;;;;5.17;1.13;;;17.40;99.90;;;;;;4985390;28;20389;-74
2023/08/03 06:52:58;;;;;;;3.57;1.00;;;17.40;99.90;;;;;;5008213;28;21141;-74
2023/08/03 06:55:24;;;;;;;7.13;1.20;;;17.50;99.90;;;;;;5011018;28;20124;-74
2023/08/03 06:57:50;;;;;;;4.80;1.70;;;17.70;99.90;;;;;;5000642;28;20711;-74
2023/08/03 07:00:16;;;;;;;5.73;2.00;;;17.90;99.90;;;;;;5008749;28;20456;-74
2023/08/03 07:02:44;;;;;;;3.93;1.33;;;18.00;99.90;;;;;;5000707;28;20556;-74
2023/08/03 07:05:10;;;;;;;3.63;1.10;;;18.20;99.90;;;;;;5001264;28;20053;-74
2023/08/03 07:07:36;;;;;;;3.97;0.47;;;18.30;99.90;;;;;;5001974;28;20400;-74
2023/08/03 07:10:02;;;;;;;4.57;0.70;;;18.40;99.90;;;;;;5004077;28;20095;-74
2023/08/03 07:12:28;;;;;;;3.53;0.93;;;18.60;99.90;;;;;;5007504;28;20053;-74
2023/08/03 07:14:55;;;;;;;7.67;0.63;;;18.70;99.90;;;;;;4998472;28;20077;-74
2023/08/03 07:17:22;;;;;;;3.40;0.67;;;18.70;99.90;;;;;;5024644;28;20084;-74
2023/08/03 07:19:51;;;;;;;2.27;0.57;;;18.70;99.90;;;;;;5039545;28;20073;-74
2023/08/03 07:22:18;;;;;;;4.83;0.87;;;18.90;99.90;;;;;;5046348;28;20051;-74
2023/08/03 07:24:44;;;;;;;2.50;0.60;;;18.80;99.90;;;;;;5041493;28;20040;-74
2023/08/03 07:27:10;;;;;;;4.30;0.80;;;18.80;99.90;;;;;;5037895;28;20037;-74
2023/08/03 07:29:36;;;;;;;3.23;0.67;;;18.50;99.90;;;;;;5029369;28;20039;-74
2023/08/03 07:32:02;;;;;;;7.37;1.03;;;18.40;99.90;;;;;;5044778;28;20542;-74
2023/08/03 07:34:28;;;;;;;5.93;1.10;;;18.20;99.90;;;;;;5040846;28;20146;-74
2023/08/03 07:36:55;;;;;;;4.33;0.87;;;18.00;99.90;;;;;;5044897;28;20041;-74
2023/08/03 07:39:21;;;;;;;6.77;0.87;;;17.80;99.90;;;;;;5043557;28;20572;-74
2023/08/03 07:41:47;;;;;;;6.67;1.47;;;17.90;99.90;;;;;;5047643;28;20037;-74
2023/08/03 07:44:15;;;;;;;6.70;1.00;;;18.10;99.90;;;;;;5045696;28;20472;-74
2023/08/03 07:46:41;;;;;;;4.20;1.00;;;18.20;99.90;;;;;;5037720;28;20029;-74
2023/08/03 07:49:07;;;;;;;5.27;1.13;;;18.50;99.90;;;;;;5035965;28;20912;-74
2023/08/03 07:51:32;;;;;;;8.93;1.13;;;18.80;99.90;;;;;;5034235;28;20045;-74
2023/08/03 07:53:58;;;;;;;7.73;1.03;;;18.80;99.90;;;;;;5038999;28;20120;-74
2023/08/03 07:56:24;;;;;;;8.27;1.30;;;18.90;99.90;;;;;;5048291;28;20036;-74
2023/08/03 07:58:50;;;;;;;8.30;1.80;;;19.00;99.90;;;;;;5051060;28;20037;-73
2023/08/03 08:01:17;;;;;;;8.10;1.60;;;19.10;99.90;;;;;;5046347;28;20048;-73
2023/08/03 08:03:43;;;;;;;9.40;1.57;;;19.10;99.90;;;;;;5042367;28;20883;-74
2023/08/03 08:06:15;;;;;;;8.43;2.10;;;18.80;96.70;;;;;;5036745;28;20413;-73
2023/08/03 08:08:42;;;;;;;7.07;1.50;;;18.60;99.90;;;;;;5042528;28;20143;-73
2023/08/03 08:11:08;;;;;;;5.03;1.40;;;18.50;99.90;;;;;;5042461;28;20049;-73
2023/08/03 08:13:34;;;;;;;7.93;1.83;;;18.60;99.90;;;;;;5046973;28;20090;-73
2023/08/03 08:16:08;;;;;;;10.47;2.43;;;18.70;99.90;;;;;;5048660;28;20036;-74
2023/08/03 08:18:35;;;;;;;7.15;1.33;;;18.90;99.90;;;;;;5044702;28;20049;-74
2023/08/03 08:21:03;;;;;;;9.00;1.80;;;19.10;99.00;;;;;;5050928;28;20071;-74
2023/08/03 08:23:30;;;;;;;9.10;1.83;;;19.10;99.50;;;;;;5022589;28;20071;-74
2023/08/03 08:25:56;;;;;;;7.47;1.57;;;19.10;99.50;;;;;;5027623;28;20072;-74
2023/08/03 08:28:22;;;;;;;9.03;1.43;;;19.10;99.90;;;;;;5041464;28;20068;-74
2023/08/03 08:30:47;;;;;;;8.73;1.80;;;19.20;99.90;;;;;;5043565;28;20076;-73
2023/08/03 08:33:18;;;;;;;5.73;1.37;;;19.20;99.90;;;;;;5038518;28;20520;-73
2023/08/03 08:35:45;;;;;;;6.93;2.13;;;19.40;99.90;;;;;;5037673;28;20059;-73
2023/08/03 08:38:12;;;;;;;9.53;1.70;;;19.60;99.90;;;;;;5048114;28;20087;-73
2023/08/03 08:40:40;;;;;;;7.10;1.80;;;19.70;99.80;;;;;;5043117;28;20041;-73
2023/08/03 08:43:06;;;;;;;8.70;1.70;;;19.70;98.00;;;;;;5051700;28;20103;-73
2023/08/03 08:45:33;;;;;;;7.30;1.67;;;19.60;99.10;;;;;;5046738;28;20085;-74
2023/08/03 08:47:58;;;;;;;6.80;1.37;;;19.60;97.80;;;;;;5041967;28;20037;-74
2023/08/03 08:50:24;;;;;;;5.40;1.40;;;19.90;99.90;;;;;;5036486;28;20045;-73
2023/08/03 08:52:51;;;;;;;3.80;1.40;;;19.90;97.60;;;;;;5042298;28;20093;-74
2023/08/03 08:55:19;;;;;;;6.10;1.23;;;20.10;99.10;;;;;;5046744;28;20060;-73
2023/08/03 08:57:45;;;;;;;4.77;1.30;;;20.20;94.70;;;;;;5043012;28;20037;-73
2023/08/03 09:00:11;;;;;;;8.53;1.50;;;20.30;96.40;;;;;;5040374;28;20554;-73
2023/08/03 09:02:37;;;;;;;8.90;2.00;;;20.40;96.70;;;;;;5039480;28;21023;-73
2023/08/03 09:05:20;;;;;;;5.93;1.07;;;20.60;95.30;;;;;;5034193;28;20044;-73
2023/08/03 09:08:02;;;;;;;5.73;1.10;;;20.70;96.50;;;;;;5039518;28;20833;-73
2023/08/03 09:10:28;;;;;;;8.33;1.50;;;20.70;94.10;;;;;;5033951;28;20040;-73
2023/08/03 09:12:54;;;;;;;5.63;1.37;;;20.90;93.70;;;;;;5035926;28;20127;-73
2023/08/03 09:15:40;;;;;;;7.07;1.30;;;21.00;94.10;;;;;;5037206;28;20167;-73
2023/08/03 09:18:07;;;;;;;8.50;1.30;;;21.10;93.40;;;;;;5042326;28;20132;-73
2023/08/03 09:20:34;;;;;;;5.43;0.90;;;21.00;91.90;;;;;;5043434;28;20037;-73
2023/08/03 09:23:01;;;;;;;6.83;1.00;;;20.80;90.50;;;;;;5042567;28;20045;-73
2023/08/03 09:25:27;;;;;;;5.23;0.90;;;20.40;89.90;;;;;;5039931;28;20034;-73
2023/08/03 09:27:56;;;;;;;4.40;0.70;;;20.30;92.20;;;;;;5028683;28;20115;-73
2023/08/03 09:30:22;;;;;;;7.07;0.60;;;20.20;93.10;;;;;;5041251;28;20080;-73
2023/08/03 09:32:48;;;;;;;7.17;0.90;;;20.20;93.90;;;;;;5041176;28;20123;-73
2023/08/03 09:35:17;;;;;;;4.87;0.47;;;20.30;95.00;;;;;;5041719;28;20647;-73
2023/08/03 09:37:43;;;;;;;6.07;0.77;;;20.20;90.90;;;;;;5019280;28;20080;-73
2023/08/03 09:40:09;;;;;;;8.70;0.87;;;20.10;91.40;;;;;;5030111;28;20300;-73
2023/08/03 09:42:37;;;;;;;3.53;0.80;;;20.10;91.00;;;;;;5042187;28;20040;-73
2023/08/03 09:45:04;;;;;;;6.17;0.73;;;20.20;93.60;;;;;;5041428;28;20462;-73
2023/08/03 09:47:36;;;;;;;3.77;0.60;;;20.50;94.50;;;;;;5043503;28;20500;-73
2023/08/03 09:50:03;;;;;;;3.93;0.67;;;20.80;94.60;;;;;;5046889;28;20187;-73
2023/08/03 09:52:31;;;;;;;6.43;1.10;;;21.20;92.10;;;;;;5028562;28;20165;-73
2023/08/03 09:55:08;;;;;;;4.03;0.90;;;21.30;87.40;;;;;;5040643;28;21068;-73
2023/08/03 09:57:47;;;;;;;3.63;0.80;;;21.20;89.50;;;;;;5038651;28;20563;-73
2023/08/03 10:00:15;;;;;;;7.03;0.80;;;21.00;88.60;;;;;;5047985;28;20045;-73
2023/08/03 10:02:51;;;;;;;7.13;0.90;;;21.10;88.00;;;;;;5034527;28;20119;-73
2023/08/03 10:05:20;;;;;;;5.10;0.67;;;21.10;90.00;;;;;;5034306;28;20115;-73
2023/08/03 10:07:57;;;;;;;7.00;1.53;;;21.20;91.10;;;;;;5038855;28;20029;-73
2023/08/03 10:10:27;;;;;;;7.60;0.97;;;21.50;92.70;;;;;;5032087;28;20041;-73
2023/08/03 10:12:59;;;;;;;5.67;1.23;;;21.60;87.00;;;;;;5041501;28;20045;-73
2023/08/03 10:15:25;;;;;;;5.93;1.00;;;21.60;87.20;;;;;;5036376;28;20037;-73
2023/08/03 10:17:52;;;;;;;6.83;0.90;;;21.60;87.00;;;;;;5042440;28;20515;-73
2023/08/03 10:20:19;;;;;;;8.53;1.23;;;21.40;88.20;;;;;;5044389;28;20049;-73
2023/08/03 10:23:10;;;;;;;4.63;1.13;;;21.20;87.90;;;;;;5042851;28;20040;-73
2023/08/03 10:25:52;;;;;;;7.63;1.27;;;21.10;90.10;;;;;;5044902;28;20102;-73
2023/08/03 10:28:18;;;;;;;5.23;0.90;;;21.00;88.80;;;;;;5036807;28;20049;-73
2023/08/03 10:31:05;;;;;;;7.03;1.77;;;21.00;90.50;;;;;;5042890;28;20482;-73
2023/08/03 10:33:51;;;;;;;3.57;1.00;;;21.10;89.80;;;;;;5042737;28;20124;-73
2023/08/03 10:36:26;;;;;;;6.20;0.80;;;21.10;85.00;;;;;;5033151;28;20491;-73
2023/08/03 10:38:52;;;;;;;;;;;21.00;85.30;;;;;;5044358;28;20068;-73
2023/08/03 10:41:22;;;;;;;4.63;1.50;;;20.90;85.50;;;;;;5024159;28;19968;-73
2023/08/03 10:44:09;;;;;;;5.30;1.00;;;20.70;85.70;;;;;;5040907;28;20416;-73
2023/08/03 10:46:49;;;;;;;5.43;0.63;;;20.60;88.70;;;;;;5042715;28;20049;-73
2023/08/03 10:49:18;;;;;;;5.30;0.87;;;20.70;91.20;;;;;;5068305;28;21301;-73
2023/08/03 10:51:50;;;;;;;4.77;0.70;;;20.80;90.60;;;;;;5047549;28;20041;-73
2023/08/03 10:54:19;;;;;;;5.77;0.90;;;20.90;89.90;;;;;;5045244;28;20037;-73
2023/08/03 10:57:04;;;;;;;6.07;0.90;;;21.00;90.90;;;;;;5052865;28;20048;-73
2023/08/03 10:59:48;;;;;;;5.70;0.83;;;21.20;91.10;;;;;;5045139;28;20165;-73
2023/08/03 11:02:25;;;;;;;7.80;0.80;;;21.20;87.90;;;;;;5046038;28;20055;-73
2023/08/03 11:05:14;;;;;;;3.60;0.60;;;21.20;87.00;;;;;;5048101;28;20478;-73
2023/08/03 11:07:45;;;;;;;2.20;0.60;;;21.10;86.90;;;;;;5043199;28;20037;-73
2023/08/03 11:10:13;;;;;;;5.90;1.07;;;21.00;82.80;;;;;;5051765;28;20619;-73
2023/08/03 11:12:41;;;;;;;5.17;0.60;;;21.00;84.40;;;;;;5035232;28;20147;-73
2023/08/03 11:15:07;;;;;;;5.80;0.73;;;21.30;86.40;;;;;;5042042;28;20056;-73
2023/08/03 11:17:34;;;;;;;6.70;1.23;;;21.50;83.60;;;;;;5043000;28;20056;-73
2023/08/03 11:20:03;;;;;;;9.43;1.40;;;21.40;85.00;;;;;;5030090;28;20038;-73
2023/08/03 11:22:30;;;;;;;5.33;1.40;;;21.00;87.30;;;;;;5043972;28;20166;-73
2023/08/03 11:25:00;;;;;;;6.27;2.00;;;20.90;88.50;;;;;;5044839;28;20056;-73
2023/08/03 11:27:26;;;;;;;7.80;1.80;;;20.60;88.10;;;;;;5040155;28;20095;-73
2023/08/03 11:29:52;;;;;;;10.07;1.63;;;20.60;88.10;;;;;;5072673;28;20033;-73
2023/08/03 11:32:26;;;;;;;9.07;2.00;;;20.70;87.40;;;;;;5066352;28;21175;-73
2023/08/03 11:35:06;;;;;;;9.37;2.03;;;20.80;87.00;;;;;;5054687;28;20033;-73
2023/08/03 11:37:33;;;;;;;8.43;1.93;;;20.90;89.20;;;;;;5037162;28;20040;-73
2023/08/03 11:40:00;;;;;;;7.17;1.53;;;20.80;87.20;;;;;;5046754;28;20045;-73
2023/08/03 11:42:29;;;;;;;9.60;1.60;;;20.50;86.40;;;;;;5046672;28;20517;-71
2023/08/03 11:44:55;;;;;;;4.40;0.80;;;20.30;86.60;;;;;;5040189;28;20045;-71
2023/08/03 11:47:21;;;;;;;7.03;1.80;;;20.30;87.20;;;;;;5020995;28;20030;-72
2023/08/03 11:49:48;;;;;;;7.77;1.40;;;20.10;88.30;;;;;;5037942;28;20046;-72
2023/08/03 11:52:18;;;;;;;6.57;1.10;;;20.10;90.00;;;;;;5032097;28;20457;-73
2023/08/03 11:54:44;;;;;;;6.53;1.50;;;20.10;89.50;;;;;;5039197;28;20080;-72
2023/08/03 11:59:55;;;;;;;7.25;1.30;;;20.00;89.70;;;;;;5040187;28;20052;-72
2023/08/03 12:02:39;;;;;;;5.63;1.10;;;20.00;88.10;;;;;;5030486;28;20037;-72
2023/08/03 12:05:06;;;;;;;5.40;1.15;;;20.10;86.30;;;;;;5039232;28;20063;-73
2023/08/03 12:07:32;;;;;;;4.30;0.80;;;20.00;86.60;;;;;;5037850;28;20045;-72
2023/08/03 12:09:58;;;;;;;5.17;1.63;;;19.90;87.20;;;;;;5042496;28;20037;-72
2023/08/03 12:12:24;;;;;;;6.27;1.50;;;19.70;87.60;;;;;;5044435;28;20029;-72
2023/08/03 12:14:50;;;;;;;7.03;1.60;;;19.50;88.80;;;;;;5044318;28;20435;-72
2023/08/03 12:17:16;;;;;;;6.80;1.70;;;19.40;91.30;;;;;;5023996;28;20110;-72
2023/08/03 12:19:42;;;;;;;9.93;1.93;;;19.30;91.30;;;;;;5041940;28;20048;-72
2023/08/03 12:22:07;;;;;;;11.97;2.80;;;19.00;91.60;;;;;;5038307;28;20114;-72
2023/08/03 12:24:34;;;;;;;13.90;3.40;;;18.80;91.80;;;;;;5035303;28;20045;-72
2023/08/03 12:27:02;;;;;;;12.53;2.63;;;18.60;92.70;;;;;;5034905;28;20069;-72
2023/08/03 12:29:27;;;;;;;12.63;3.47;;;18.50;94.40;;;;;;5035249;28;20041;-72
2023/08/03 12:31:53;;;;;;;11.27;2.80;;;18.50;95.30;;;;;;5037318;28;20041;-72
2023/08/03 12:34:19;;;;;;;10.60;2.97;;;18.60;94.60;;;;;;5039583;28;20090;-72
2023/08/03 12:36:45;;;;;;;12.80;3.10;;;18.70;93.60;;;;;;5034769;28;20423;-72
2023/08/03 12:39:10;;;;;;;13.17;3.37;;;18.80;93.10;;;;;;5019714;28;20047;-72
2023/08/03 12:41:36;;;;;;;18.07;3.47;;;19.00;92.90;;;;;;5038865;28;20049;-72
2023/08/03 12:44:02;;;;;;;12.47;3.13;;;19.10;92.70;;;;;;5041339;28;20680;-72
2023/08/03 12:46:27;;;;;;;12.93;2.90;;;19.20;91.80;;;;;;5044956;28;20572;-72
2023/08/03 12:48:53;;;;;;;13.23;2.97;;;19.20;90.80;;;;;;5041544;28;20049;-72
2023/08/03 12:51:19;;;;;;;13.30;2.57;;;19.10;88.70;;;;;;5040419;28;20069;-73